sensor_id;sensor_type;location;lat;lon;timestamp;pressure;altitude;pressure_sealevel;temperature;humidity
53858;BME280;39763;51.188;6.690;2023-03-13T00:00:31;100089.75;;;13.08;65.54
53858;BME280;39763;51.188;6.690;2023-03-13T00:02:03;100087.97;;;13.09;64.86
53858;BME280;39763;51.188;6.690;2023-03-13T00:03:36;100086.94;;;13.12;64.91
53858;BME280;39763;51.188;6.690;2023-03-13T00:05:08;100083.47;;;13.11;65.02
53858;BME280;39763;51.188;6.690;2023-03-13T00:06:39;100073.63;;;13.15;65.33
53858;BME280;39763;51.188;6.690;2023-03-13T00:08:11;100076.13;;;13.18;65.27
53858;BME280;39763;51.188;6.690;2023-03-13T00:09:43;100074.25;;;13.20;65.42
53858;BME280;39763;51.188;6.690;2023-03-13T00:11:15;100077.75;;;13.20;65.35
53858;BME280;39763;51.188;6.690;2023-03-13T00:12:47;100065.22;;;13.24;64.99
53858;BME280;39763;51.188;6.690;2023-03-13T00:14:18;100060.78;;;13.24;64.95
53858;BME280;39763;51.188;6.690;2023-03-13T00:15:57;100059.78;;;13.27;65.23
53858;BME280;39763;51.188;6.690;2023-03-13T00:17:29;100055.28;;;13.29;64.83
53858;BME280;39763;51.188;6.690;2023-03-13T00:19:02;100055.97;;;13.32;64.54
53858;BME280;39763;51.188;6.690;2023-03-13T00:20:35;100053.25;;;13.34;65.07
53858;BME280;39763;51.188;6.690;2023-03-13T00:22:07;100053.91;;;13.37;65.17
53858;BME280;39763;51.188;6.690;2023-03-13T00:23:39;100045.06;;;13.38;64.94
53858;BME280;39763;51.188;6.690;2023-03-13T00:25:10;100046.59;;;13.43;64.83
53858;BME280;39763;51.188;6.690;2023-03-13T00:26:42;100043.09;;;13.42;64.62
53858;BME280;39763;51.188;6.690;2023-03-13T00:28:14;100037.75;;;13.44;65.20
53858;BME280;39763;51.188;6.690;2023-03-13T00:29:46;100036.72;;;13.46;65.02
53858;BME280;39763;51.188;6.690;2023-03-13T00:31:18;100020.81;;;13.48;65.19
53858;BME280;39763;51.188;6.690;2023-03-13T00:32:53;100019.88;;;13.49;65.01
53858;BME280;39763;51.188;6.690;2023-03-13T00:34:27;100020.81;;;13.48;65.65
53858;BME280;39763;51.188;6.690;2023-03-13T00:35:59;100018.97;;;13.50;65.88
53858;BME280;39763;51.188;6.690;2023-03-13T00:37:31;100016.31;;;13.50;65.95
53858;BME280;39763;51.188;6.690;2023-03-13T00:39:03;100015.47;;;13.49;65.96
53858;BME280;39763;51.188;6.690;2023-03-13T00:40:34;100014.53;;;13.50;66.09
53858;BME280;39763;51.188;6.690;2023-03-13T00:42:07;100011.91;;;13.50;66.46
53858;BME280;39763;51.188;6.690;2023-03-13T00:43:40;100011.03;;;13.50;66.27
53858;BME280;39763;51.188;6.690;2023-03-13T00:45:11;100010.94;;;13.51;66.83
53858;BME280;39763;51.188;6.690;2023-03-13T00:46:43;100008.28;;;13.51;66.49
53858;BME280;39763;51.188;6.690;2023-03-13T00:48:15;100008.28;;;13.51;66.44
53858;BME280;39763;51.188;6.690;2023-03-13T00:49:47;100003.97;;;13.50;66.89
53858;BME280;39763;51.188;6.690;2023-03-13T00:51:20;99997.75;;;13.51;66.83
53858;BME280;39763;51.188;6.690;2023-03-13T00:52:52;99996.06;;;13.50;67.12
53858;BME280;39763;51.188;6.690;2023-03-13T00:54:24;99982.97;;;13.49;67.57
53858;BME280;39763;51.188;6.690;2023-03-13T00:55:56;99984.75;;;13.48;67.71
53858;BME280;39763;51.188;6.690;2023-03-13T00:57:29;99978.69;;;13.46;67.58
53858;BME280;39763;51.188;6.690;2023-03-13T00:59:00;99983.03;;;13.47;68.35
53858;BME280;39763;51.188;6.690;2023-03-13T01:00:32;99987.56;;;13.45;68.19
53858;BME280;39763;51.188;6.690;2023-03-13T01:02:04;99982.28;;;13.45;68.61
53858;BME280;39763;51.188;6.690;2023-03-13T01:03:36;99974.44;;;13.44;68.28
53858;BME280;39763;51.188;6.690;2023-03-13T01:05:10;99973.59;;;13.43;68.90
53858;BME280;39763;51.188;6.690;2023-03-13T01:06:43;99970.97;;;13.43;68.90
53858;BME280;39763;51.188;6.690;2023-03-13T01:08:15;99975.28;;;13.44;68.85
53858;BME280;39763;51.188;6.690;2023-03-13T01:09:47;99967.38;;;13.44;69.17
53858;BME280;39763;51.188;6.690;2023-03-13T01:11:19;99967.47;;;13.43;69.32
53858;BME280;39763;51.188;6.690;2023-03-13T01:12:51;99964.06;;;13.40;69.04
53858;BME280;39763;51.188;6.690;2023-03-13T01:14:23;99965.75;;;13.41;69.64
53858;BME280;39763;51.188;6.690;2023-03-13T01:16:00;99957.78;;;13.43;69.40
53858;BME280;39763;51.188;6.690;2023-03-13T01:17:32;99955.91;;;13.45;69.35
53858;BME280;39763;51.188;6.690;2023-03-13T01:19:04;99950.53;;;13.47;69.03
53858;BME280;39763;51.188;6.690;2023-03-13T01:20:37;99945.19;;;13.48;69.30
53858;BME280;39763;51.188;6.690;2023-03-13T01:22:11;99952.16;;;13.49;69.23
53858;BME280;39763;51.188;6.690;2023-03-13T01:23:43;99944.97;;;13.51;69.27
53858;BME280;39763;51.188;6.690;2023-03-13T01:25:14;99938.69;;;13.54;69.40
53858;BME280;39763;51.188;6.690;2023-03-13T01:26:48;99943.00;;;13.55;68.93
53858;BME280;39763;51.188;6.690;2023-03-13T01:28:19;99938.69;;;13.54;69.42
53858;BME280;39763;51.188;6.690;2023-03-13T01:29:51;99934.25;;;13.54;69.23
53858;BME280;39763;51.188;6.690;2023-03-13T01:31:25;99929.91;;;13.53;69.48
53858;BME280;39763;51.188;6.690;2023-03-13T01:32:57;99933.31;;;13.55;68.95
53858;BME280;39763;51.188;6.690;2023-03-13T01:34:29;99929.81;;;13.55;69.37
53858;BME280;39763;51.188;6.690;2023-03-13T01:36:02;99940.38;;;13.55;69.34
53858;BME280;39763;51.188;6.690;2023-03-13T01:37:34;99936.13;;;13.52;69.24
53858;BME280;39763;51.188;6.690;2023-03-13T01:39:06;99932.75;;;13.50;69.27
53858;BME280;39763;51.188;6.690;2023-03-13T01:40:39;99926.63;;;13.50;69.94
53858;BME280;39763;51.188;6.690;2023-03-13T01:42:11;99922.53;;;13.44;70.12
53858;BME280;39763;51.188;6.690;2023-03-13T01:43:43;99926.13;;;13.43;70.69
53858;BME280;39763;51.188;6.690;2023-03-13T01:47:05;99909.03;;;13.34;71.93
53858;BME280;39763;51.188;6.690;2023-03-13T01:48:58;99904.88;;;13.30;72.52
53858;BME280;39763;51.188;6.690;2023-03-13T01:50:33;99898.06;;;13.26;73.34
53858;BME280;39763;51.188;6.690;2023-03-13T01:52:22;99899.25;;;13.21;74.20
53858;BME280;39763;51.188;6.690;2023-03-13T01:54:00;99893.47;;;13.14;74.73
53858;BME280;39763;51.188;6.690;2023-03-13T01:55:34;99890.06;;;13.12;75.04
53858;BME280;39763;51.188;6.690;2023-03-13T01:57:07;99882.41;;;13.07;75.49
53858;BME280;39763;51.188;6.690;2023-03-13T01:58:43;99880.81;;;13.05;75.68
53858;BME280;39763;51.188;6.690;2023-03-13T02:00:17;99873.09;;;13.02;75.49
53858;BME280;39763;51.188;6.690;2023-03-13T02:01:50;99872.41;;;12.98;76.01
53858;BME280;39763;51.188;6.690;2023-03-13T02:03:23;99869.00;;;12.96;76.54
53858;BME280;39763;51.188;6.690;2023-03-13T02:04:56;99862.88;;;12.96;76.55
53858;BME280;39763;51.188;6.690;2023-03-13T02:06:30;99850.72;;;12.93;76.45
53858;BME280;39763;51.188;6.690;2023-03-13T02:08:05;99860.50;;;12.91;76.60
53858;BME280;39763;51.188;6.690;2023-03-13T02:09:39;99853.72;;;12.87;76.98
53858;BME280;39763;51.188;6.690;2023-03-13T02:11:15;99850.22;;;12.87;77.67
53858;BME280;39763;51.188;6.690;2023-03-13T02:12:51;99845.03;;;12.85;77.31
53858;BME280;39763;51.188;6.690;2023-03-13T02:14:25;99836.28;;;12.85;77.49
53858;BME280;39763;51.188;6.690;2023-03-13T02:15:58;99834.59;;;12.84;77.55
53858;BME280;39763;51.188;6.690;2023-03-13T02:17:30;99826.59;;;12.85;78.08
53858;BME280;39763;51.188;6.690;2023-03-13T02:19:06;99824.03;;;12.84;77.56
53858;BME280;39763;51.188;6.690;2023-03-13T02:20:44;99823.97;;;12.85;77.59
53858;BME280;39763;51.188;6.690;2023-03-13T02:22:19;99826.75;;;12.82;78.17
53858;BME280;39763;51.188;6.690;2023-03-13T02:23:55;99817.16;;;12.81;77.78
53858;BME280;39763;51.188;6.690;2023-03-13T02:25:33;99830.41;;;12.80;78.60
53858;BME280;39763;51.188;6.690;2023-03-13T02:27:06;99833.91;;;12.80;78.35
53858;BME280;39763;51.188;6.690;2023-03-13T02:28:41;99828.78;;;12.77;78.64
53858;BME280;39763;51.188;6.690;2023-03-13T02:30:16;99830.50;;;12.78;78.97
53858;BME280;39763;51.188;6.690;2023-03-13T02:31:48;99816.47;;;12.78;79.02
53858;BME280;39763;51.188;6.690;2023-03-13T02:33:21;99816.47;;;12.78;79.19
53858;BME280;39763;51.188;6.690;2023-03-13T02:34:57;99811.13;;;12.79;79.37
53858;BME280;39763;51.188;6.690;2023-03-13T02:36:32;99812.13;;;12.77;79.70
53858;BME280;39763;51.188;6.690;2023-03-13T02:38:04;99804.16;;;12.78;79.59
53858;BME280;39763;51.188;6.690;2023-03-13T02:39:38;99805.09;;;12.77;79.40
53858;BME280;39763;51.188;6.690;2023-03-13T02:41:13;99793.53;;;12.80;79.97
53858;BME280;39763;51.188;6.690;2023-03-13T02:42:45;99801.50;;;12.78;79.92
53858;BME280;39763;51.188;6.690;2023-03-13T02:44:18;99792.88;;;12.76;80.14
53858;BME280;39763;51.188;6.690;2023-03-13T02:46:01;99798.16;;;12.76;80.84
53858;BME280;39763;51.188;6.690;2023-03-13T02:47:34;99797.19;;;12.77;80.94
53858;BME280;39763;51.188;6.690;2023-03-13T02:49:09;99784.00;;;12.77;81.17
53858;BME280;39763;51.188;6.690;2023-03-13T02:50:47;99790.25;;;12.76;81.57
53858;BME280;39763;51.188;6.690;2023-03-13T02:52:20;99784.84;;;12.78;81.12
53858;BME280;39763;51.188;6.690;2023-03-13T02:53:54;99786.56;;;12.79;81.83
53858;BME280;39763;51.188;6.690;2023-03-13T02:55:28;99778.56;;;12.80;81.66
53858;BME280;39763;51.188;6.690;2023-03-13T02:57:02;99780.25;;;12.81;81.91
53858;BME280;39763;51.188;6.690;2023-03-13T02:58:37;99758.25;;;12.82;82.10
53858;BME280;39763;51.188;6.690;2023-03-13T03:00:21;99758.16;;;12.84;82.25
53858;BME280;39763;51.188;6.690;2023-03-13T03:01:58;99761.56;;;12.86;82.07
53858;BME280;39763;51.188;6.690;2023-03-13T03:03:30;99751.69;;;12.89;82.20
53858;BME280;39763;51.188;6.690;2023-03-13T03:05:01;99740.31;;;12.89;82.61
53858;BME280;39763;51.188;6.690;2023-03-13T03:06:33;99740.09;;;12.92;82.36
53858;BME280;39763;51.188;6.690;2023-03-13T03:08:06;99726.84;;;12.93;82.79
53858;BME280;39763;51.188;6.690;2023-03-13T03:09:38;99737.22;;;12.96;82.27
53858;BME280;39763;51.188;6.690;2023-03-13T03:11:14;99729.13;;;12.99;82.35
53858;BME280;39763;51.188;6.690;2023-03-13T03:12:50;99736.88;;;13.02;82.80
53858;BME280;39763;51.188;6.690;2023-03-13T03:14:22;99738.56;;;13.03;82.93
53858;BME280;39763;51.188;6.690;2023-03-13T03:15:55;99746.28;;;13.06;82.42
53858;BME280;39763;51.188;6.690;2023-03-13T03:17:27;99749.88;;;13.05;82.33
53858;BME280;39763;51.188;6.690;2023-03-13T03:18:58;99742.59;;;13.09;82.02
53858;BME280;39763;51.188;6.690;2023-03-13T03:20:31;99735.47;;;13.11;82.32
53858;BME280;39763;51.188;6.690;2023-03-13T03:22:03;99753.69;;;13.16;82.05
53858;BME280;39763;51.188;6.690;2023-03-13T03:23:36;99739.72;;;13.14;82.75
53858;BME280;39763;51.188;6.690;2023-03-13T03:25:08;99743.13;;;13.16;82.09
53858;BME280;39763;51.188;6.690;2023-03-13T03:26:40;99736.00;;;13.18;82.09
53858;BME280;39763;51.188;6.690;2023-03-13T03:28:21;99729.78;;;13.19;82.32
53858;BME280;39763;51.188;6.690;2023-03-13T03:29:52;99728.84;;;13.20;81.95
53858;BME280;39763;51.188;6.690;2023-03-13T03:31:25;99739.19;;;13.23;82.11
53858;BME280;39763;51.188;6.690;2023-03-13T03:32:57;99736.47;;;13.24;82.34
53858;BME280;39763;51.188;6.690;2023-03-13T03:34:29;99732.97;;;13.24;82.04
53858;BME280;39763;51.188;6.690;2023-03-13T03:36:03;99733.66;;;13.27;81.88
53858;BME280;39763;51.188;6.690;2023-03-13T03:37:35;99744.00;;;13.30;81.88
53858;BME280;39763;51.188;6.690;2023-03-13T03:39:08;99742.13;;;13.32;81.99
53858;BME280;39763;51.188;6.690;2023-03-13T03:40:40;99739.31;;;13.35;81.77
53858;BME280;39763;51.188;6.690;2023-03-13T03:42:12;99734.78;;;13.37;81.49
53858;BME280;39763;51.188;6.690;2023-03-13T03:43:45;99729.50;;;13.37;81.11
53858;BME280;39763;51.188;6.690;2023-03-13T03:45:24;99724.91;;;13.41;81.09
53858;BME280;39763;51.188;6.690;2023-03-13T03:46:56;99720.38;;;13.43;81.48
53858;BME280;39763;51.188;6.690;2023-03-13T03:48:30;99715.00;;;13.45;81.23
53858;BME280;39763;51.188;6.690;2023-03-13T03:50:01;99708.91;;;13.44;81.20
53858;BME280;39763;51.188;6.690;2023-03-13T03:51:40;99713.22;;;13.45;81.33
53858;BME280;39763;51.188;6.690;2023-03-13T03:53:12;99728.13;;;13.46;81.45
53858;BME280;39763;51.188;6.690;2023-03-13T03:54:44;99729.72;;;13.49;81.19
53858;BME280;39763;51.188;6.690;2023-03-13T03:56:16;99740.91;;;13.52;81.38
53858;BME280;39763;51.188;6.690;2023-03-13T03:57:53;99728.47;;;13.54;81.20
53858;BME280;39763;51.188;6.690;2023-03-13T03:59:44;99725.66;;;13.57;80.68
53858;BME280;39763;51.188;6.690;2023-03-13T04:01:16;99729.16;;;13.58;81.29
53858;BME280;39763;51.188;6.690;2023-03-13T04:02:47;99735.19;;;13.60;80.64
53858;BME280;39763;51.188;6.690;2023-03-13T04:04:20;99725.56;;;13.59;80.80
53858;BME280;39763;51.188;6.690;2023-03-13T04:05:55;99734.25;;;13.61;80.75
53858;BME280;39763;51.188;6.690;2023-03-13T04:07:28;99735.94;;;13.62;80.65
53858;BME280;39763;51.188;6.690;2023-03-13T04:09:00;99719.09;;;13.64;80.85
53858;BME280;39763;51.188;6.690;2023-03-13T04:10:33;99713.69;;;13.66;80.68
53858;BME280;39763;51.188;6.690;2023-03-13T04:12:05;99714.66;;;13.65;80.77
53858;BME280;39763;51.188;6.690;2023-03-13T04:13:41;99716.13;;;13.69;81.05
53858;BME280;39763;51.188;6.690;2023-03-13T04:15:14;99706.44;;;13.69;80.71
53858;BME280;39763;51.188;6.690;2023-03-13T04:16:47;99712.66;;;13.68;81.03
53858;BME280;39763;51.188;6.690;2023-03-13T04:18:19;99715.09;;;13.71;80.84
53858;BME280;39763;51.188;6.690;2023-03-13T04:19:51;99705.41;;;13.72;81.07
53858;BME280;39763;51.188;6.690;2023-03-13T04:21:23;99707.00;;;13.74;81.03
53858;BME280;39763;51.188;6.690;2023-03-13T04:23:09;99694.56;;;13.76;80.96
53858;BME280;39763;51.188;6.690;2023-03-13T04:24:40;99685.81;;;13.76;81.12
53858;BME280;39763;51.188;6.690;2023-03-13T04:26:12;99699.66;;;13.80;81.07
53858;BME280;39763;51.188;6.690;2023-03-13T04:27:45;99694.25;;;13.81;80.84
53858;BME280;39763;51.188;6.690;2023-03-13T04:29:16;99695.94;;;13.82;80.89
53858;BME280;39763;51.188;6.690;2023-03-13T04:31:03;99694.06;;;13.84;80.95
53858;BME280;39763;51.188;6.690;2023-03-13T04:32:50;99700.19;;;13.85;80.91
53858;BME280;39763;51.188;6.690;2023-03-13T04:34:36;99699.25;;;13.86;81.05
53858;BME280;39763;51.188;6.690;2023-03-13T04:36:34;99699.06;;;13.89;80.98
53858;BME280;39763;51.188;6.690;2023-03-13T04:38:24;99691.81;;;13.92;81.00
53858;BME280;39763;51.188;6.690;2023-03-13T04:40:16;99689.06;;;13.94;80.99
53858;BME280;39763;51.188;6.690;2023-03-13T04:41:51;99697.72;;;13.96;80.95
53858;BME280;39763;51.188;6.690;2023-03-13T04:43:43;99695.22;;;13.94;80.95
53858;BME280;39763;51.188;6.690;2023-03-13T04:45:32;99687.81;;;13.99;80.92
53858;BME280;39763;51.188;6.690;2023-03-13T04:47:38;99693.19;;;13.98;80.88
53858;BME280;39763;51.188;6.690;2023-03-13T04:49:15;99690.56;;;13.98;81.00
53858;BME280;39763;51.188;6.690;2023-03-13T04:51:03;99696.41;;;14.03;80.89
53858;BME280;39763;51.188;6.690;2023-03-13T04:52:51;99686.50;;;14.06;80.64
53858;BME280;39763;51.188;6.690;2023-03-13T04:54:33;99676.78;;;14.07;80.90
53858;BME280;39763;51.188;6.690;2023-03-13T04:56:25;99674.78;;;14.10;80.41
53858;BME280;39763;51.188;6.690;2023-03-13T04:58:39;99664.34;;;14.09;80.70
53858;BME280;39763;51.188;6.690;2023-03-13T05:00:33;99669.09;;;14.17;80.53
53858;BME280;39763;51.188;6.690;2023-03-13T05:02:23;99669.00;;;14.18;80.67
53858;BME280;39763;51.188;6.690;2023-03-13T05:04:22;99677.50;;;14.23;80.56
53858;BME280;39763;51.188;6.690;2023-03-13T05:06:04;99675.69;;;14.24;80.42
53858;BME280;39763;51.188;6.690;2023-03-13T05:07:44;99669.44;;;14.25;80.46
53858;BME280;39763;51.188;6.690;2023-03-13T05:09:35;99664.72;;;14.30;80.26
53858;BME280;39763;51.188;6.690;2023-03-13T05:11:25;99661.31;;;14.28;80.27
53858;BME280;39763;51.188;6.690;2023-03-13T05:13:03;99648.03;;;14.29;80.31
53858;BME280;39763;51.188;6.690;2023-03-13T05:14:54;99650.56;;;14.31;80.32
53858;BME280;39763;51.188;6.690;2023-03-13T05:16:51;99650.47;;;14.32;80.35
53858;BME280;39763;51.188;6.690;2023-03-13T05:18:49;99646.88;;;14.33;80.48
53858;BME280;39763;51.188;6.690;2023-03-13T05:20:45;99641.50;;;14.35;80.37
53858;BME280;39763;51.188;6.690;2023-03-13T05:22:46;99642.34;;;14.35;80.47
53858;BME280;39763;51.188;6.690;2023-03-13T05:24:23;99652.72;;;14.38;80.27
53858;BME280;39763;51.188;6.690;2023-03-13T05:26:27;99644.81;;;14.38;80.18
53858;BME280;39763;51.188;6.690;2023-03-13T05:28:13;99646.69;;;14.36;80.25
53858;BME280;39763;51.188;6.690;2023-03-13T05:30:04;99643.00;;;14.39;80.17
53858;BME280;39763;51.188;6.690;2023-03-13T05:31:59;99633.38;;;14.38;80.10
53858;BME280;39763;51.188;6.690;2023-03-13T05:33:42;99640.16;;;14.42;79.99
53858;BME280;39763;51.188;6.690;2023-03-13T05:35:37;99640.91;;;14.44;80.06
53858;BME280;39763;51.188;6.690;2023-03-13T05:37:33;99632.69;;;14.49;79.92
53858;BME280;39763;51.188;6.690;2023-03-13T05:39:35;99635.25;;;14.50;79.88
53858;BME280;39763;51.188;6.690;2023-03-13T05:41:30;99641.88;;;14.56;79.47
53858;BME280;39763;51.188;6.690;2023-03-13T05:43:20;99639.25;;;14.56;79.13
53858;BME280;39763;51.188;6.690;2023-03-13T05:45:09;99641.69;;;14.59;79.11
53858;BME280;39763;51.188;6.690;2023-03-13T05:47:10;99656.50;;;14.61;78.94
53858;BME280;39763;51.188;6.690;2023-03-13T05:49:11;99654.72;;;14.62;78.82
53858;BME280;39763;51.188;6.690;2023-03-13T05:51:09;99654.63;;;14.63;78.54
53858;BME280;39763;51.188;6.690;2023-03-13T05:53:10;99642.25;;;14.64;78.68
53858;BME280;39763;51.188;6.690;2023-03-13T05:55:00;99637.91;;;14.63;78.54
53858;BME280;39763;51.188;6.690;2023-03-13T05:57:05;99638.66;;;14.65;78.41
53858;BME280;39763;51.188;6.690;2023-03-13T05:58:47;99641.41;;;14.63;78.26
53858;BME280;39763;51.188;6.690;2023-03-13T06:00:38;99644.13;;;14.62;78.45
53858;BME280;39763;51.188;6.690;2023-03-13T06:02:33;99646.59;;;14.65;78.38
53858;BME280;39763;51.188;6.690;2023-03-13T06:04:05;99646.69;;;14.63;78.22
53858;BME280;39763;51.188;6.690;2023-03-13T06:05:39;99646.38;;;14.68;78.00
53858;BME280;39763;51.188;6.690;2023-03-13T06:07:21;99642.78;;;14.69;77.99
53858;BME280;39763;51.188;6.690;2023-03-13T06:08:54;99642.66;;;14.70;77.94
53858;BME280;39763;51.188;6.690;2023-03-13T06:10:30;99632.94;;;14.71;77.93
53858;BME280;39763;51.188;6.690;2023-03-13T06:12:03;99646.69;;;14.76;77.56
53858;BME280;39763;51.188;6.690;2023-03-13T06:13:35;99647.66;;;14.75;77.58
53858;BME280;39763;51.188;6.690;2023-03-13T06:15:14;99646.69;;;14.76;77.42
53858;BME280;39763;51.188;6.690;2023-03-13T06:17:12;99639.72;;;14.75;77.61
53858;BME280;39763;51.188;6.690;2023-03-13T06:18:43;99650.09;;;14.78;77.41
53858;BME280;39763;51.188;6.690;2023-03-13T06:20:15;99648.41;;;14.77;77.05
53858;BME280;39763;51.188;6.690;2023-03-13T06:21:47;99630.75;;;14.77;77.14
53858;BME280;39763;51.188;6.690;2023-03-13T06:23:19;99642.16;;;14.78;77.02
53858;BME280;39763;51.188;6.690;2023-03-13T06:24:53;99628.94;;;14.78;77.01
53858;BME280;39763;51.188;6.690;2023-03-13T06:26:24;99639.94;;;14.85;76.85
53858;BME280;39763;51.188;6.690;2023-03-13T06:27:56;99635.63;;;14.84;76.90
53858;BME280;39763;51.188;6.690;2023-03-13T06:29:28;99616.38;;;14.81;76.71
53858;BME280;39763;51.188;6.690;2023-03-13T06:31:00;99635.06;;;14.78;76.87
53858;BME280;39763;51.188;6.690;2023-03-13T06:32:32;99636.44;;;14.84;76.72
53858;BME280;39763;51.188;6.690;2023-03-13T06:34:05;99644.91;;;14.89;76.69
53858;BME280;39763;51.188;6.690;2023-03-13T06:35:38;99642.06;;;14.92;76.52
53858;BME280;39763;51.188;6.690;2023-03-13T06:37:26;99630.84;;;14.89;76.36
53858;BME280;39763;51.188;6.690;2023-03-13T06:38:58;99643.03;;;14.91;76.09
53858;BME280;39763;51.188;6.690;2023-03-13T06:40:31;99626.41;;;14.89;76.05
53858;BME280;39763;51.188;6.690;2023-03-13T06:42:04;99635.72;;;14.95;75.97
53858;BME280;39763;51.188;6.690;2023-03-13T06:43:36;99648.84;;;14.96;75.98
53858;BME280;39763;51.188;6.690;2023-03-13T06:45:11;99656.53;;;14.99;75.76
53858;BME280;39763;51.188;6.690;2023-03-13T06:46:42;99658.25;;;15.00;75.53
53858;BME280;39763;51.188;6.690;2023-03-13T06:48:14;99651.81;;;15.04;75.26
53858;BME280;39763;51.188;6.690;2023-03-13T06:49:46;99662.69;;;15.00;75.46
53858;BME280;39763;51.188;6.690;2023-03-13T06:51:18;99668.63;;;15.03;75.42
53858;BME280;39763;51.188;6.690;2023-03-13T06:52:50;99654.53;;;15.03;75.27
53858;BME280;39763;51.188;6.690;2023-03-13T06:54:21;99657.09;;;15.04;74.98
53858;BME280;39763;51.188;6.690;2023-03-13T06:55:54;99652.00;;;15.01;75.21
53858;BME280;39763;51.188;6.690;2023-03-13T06:57:26;99663.22;;;15.05;74.89
53858;BME280;39763;51.188;6.690;2023-03-13T06:58:59;99648.94;;;15.07;74.87
53858;BME280;39763;51.188;6.690;2023-03-13T07:00:30;99657.72;;;15.08;74.94
53858;BME280;39763;51.188;6.690;2023-03-13T07:02:02;99659.13;;;15.13;74.78
53858;BME280;39763;51.188;6.690;2023-03-13T07:03:35;99652.00;;;15.14;74.37
53858;BME280;39763;51.188;6.690;2023-03-13T07:05:07;99645.91;;;15.13;74.18
53858;BME280;39763;51.188;6.690;2023-03-13T07:06:40;99653.09;;;15.11;74.32
53858;BME280;39763;51.188;6.690;2023-03-13T07:08:11;99648.53;;;15.13;74.28
53858;BME280;39763;51.188;6.690;2023-03-13T07:09:43;99647.78;;;15.11;74.08
53858;BME280;39763;51.188;6.690;2023-03-13T07:11:16;99643.88;;;15.17;74.22
53858;BME280;39763;51.188;6.690;2023-03-13T07:12:48;99644.06;;;15.14;73.89
53858;BME280;39763;51.188;6.690;2023-03-13T07:14:19;99646.50;;;15.17;73.53
53858;BME280;39763;51.188;6.690;2023-03-13T07:15:52;99649.06;;;15.18;73.60
53858;BME280;39763;51.188;6.690;2023-03-13T07:17:24;99661.31;;;15.20;73.34
53858;BME280;39763;51.188;6.690;2023-03-13T07:18:55;99646.19;;;15.22;73.19
53858;BME280;39763;51.188;6.690;2023-03-13T07:20:27;99649.59;;;15.24;73.31
53858;BME280;39763;51.188;6.690;2023-03-13T07:21:59;99643.56;;;15.22;72.86
53858;BME280;39763;51.188;6.690;2023-03-13T07:23:31;99638.91;;;15.25;73.18
53858;BME280;39763;51.188;6.690;2023-03-13T07:25:04;99624.94;;;15.23;72.90
53858;BME280;39763;51.188;6.690;2023-03-13T07:26:37;99632.97;;;15.22;72.32
53858;BME280;39763;51.188;6.690;2023-03-13T07:28:09;99628.44;;;15.24;72.58
53858;BME280;39763;51.188;6.690;2023-03-13T07:29:40;99615.72;;;15.29;72.21
53858;BME280;39763;51.188;6.690;2023-03-13T07:31:13;99627.66;;;15.34;72.43
53858;BME280;39763;51.188;6.690;2023-03-13T07:32:46;99613.69;;;15.32;72.09
53858;BME280;39763;51.188;6.690;2023-03-13T07:34:17;99619.63;;;15.36;71.99
53858;BME280;39763;51.188;6.690;2023-03-13T07:35:49;99621.97;;;15.40;71.49
53858;BME280;39763;51.188;6.690;2023-03-13T07:37:22;99622.16;;;15.37;71.11
53858;BME280;39763;51.188;6.690;2023-03-13T07:38:54;99612.22;;;15.41;70.75
53858;BME280;39763;51.188;6.690;2023-03-13T07:40:26;99612.13;;;15.42;70.65
53858;BME280;39763;51.188;6.690;2023-03-13T07:41:59;99595.41;;;15.42;70.32
53858;BME280;39763;51.188;6.690;2023-03-13T07:43:31;99613.47;;;15.48;70.26
53858;BME280;39763;51.188;6.690;2023-03-13T07:45:03;99616.84;;;15.50;70.04
53858;BME280;39763;51.188;6.690;2023-03-13T07:46:36;99612.31;;;15.52;70.15
53858;BME280;39763;51.188;6.690;2023-03-13T07:48:07;99611.56;;;15.50;69.95
53858;BME280;39763;51.188;6.690;2023-03-13T07:49:39;99604.38;;;15.52;69.70
53858;BME280;39763;51.188;6.690;2023-03-13T07:51:15;99602.28;;;15.57;69.40
53858;BME280;39763;51.188;6.690;2023-03-13T07:52:47;99614.84;;;15.53;69.09
53858;BME280;39763;51.188;6.690;2023-03-13T07:54:18;99613.16;;;15.52;68.75
53858;BME280;39763;51.188;6.690;2023-03-13T07:55:51;99599.81;;;15.54;69.20
53858;BME280;39763;51.188;6.690;2023-03-13T07:57:25;99609.47;;;15.55;68.87
53858;BME280;39763;51.188;6.690;2023-03-13T07:58:56;99607.44;;;15.59;68.93
53858;BME280;39763;51.188;6.690;2023-03-13T08:00:28;99594.19;;;15.59;68.46
53858;BME280;39763;51.188;6.690;2023-03-13T08:02:00;99599.38;;;15.60;68.53
53858;BME280;39763;51.188;6.690;2023-03-13T08:03:32;99602.97;;;15.59;68.69
53858;BME280;39763;51.188;6.690;2023-03-13T08:05:04;99601.06;;;15.61;68.28
53858;BME280;39763;51.188;6.690;2023-03-13T08:06:36;99611.56;;;15.63;68.32
53858;BME280;39763;51.188;6.690;2023-03-13T08:08:08;99599.06;;;15.52;67.99
53858;BME280;39763;51.188;6.690;2023-03-13T08:09:40;99574.19;;;15.55;68.10
53858;BME280;39763;51.188;6.690;2023-03-13T08:11:13;99607.00;;;15.52;68.10
53858;BME280;39763;51.188;6.690;2023-03-13T08:12:47;99605.88;;;15.56;68.42
53858;BME280;39763;51.188;6.690;2023-03-13T08:14:20;99602.78;;;15.62;68.31
53858;BME280;39763;51.188;6.690;2023-03-13T08:15:52;99612.41;;;15.63;67.91
53858;BME280;39763;51.188;6.690;2023-03-13T08:17:23;99595.56;;;15.64;68.13
53858;BME280;39763;51.188;6.690;2023-03-13T08:18:56;99611.44;;;15.64;67.79
53858;BME280;39763;51.188;6.690;2023-03-13T08:20:28;99605.72;;;15.70;67.65
53858;BME280;39763;51.188;6.690;2023-03-13T08:22:01;99610.06;;;15.71;67.91
53858;BME280;39763;51.188;6.690;2023-03-13T08:23:33;99602.84;;;15.73;67.73
53858;BME280;39763;51.188;6.690;2023-03-13T08:25:07;99616.59;;;15.78;67.60
53858;BME280;39763;51.188;6.690;2023-03-13T08:26:39;99606.00;;;15.78;67.75
53858;BME280;39763;51.188;6.690;2023-03-13T08:28:12;99609.41;;;15.80;67.58
53858;BME280;39763;51.188;6.690;2023-03-13T08:29:44;99601.34;;;15.82;67.65
53858;BME280;39763;51.188;6.690;2023-03-13T08:31:16;99603.88;;;15.83;67.67